sensor_id;sensor_type;location;lat;lon;timestamp;P1;durP1;ratioP1;P2;durP2;ratioP2
42192;SDS011;52467;40.114;18.306;2023-04-12T00:01:10;32.28;;;14.60;;
42192;SDS011;52467;40.114;18.306;2023-04-12T00:03:37;31.13;;;15.03;;
42192;SDS011;52467;40.114;18.306;2023-04-12T00:06:05;32.83;;;15.20;;
42192;SDS011;52467;40.114;18.306;2023-04-12T00:08:33;27.33;;;14.77;;
42192;SDS011;52467;40.114;18.306;2023-04-12T00:11:01;30.42;;;15.43;;
42192;SDS011;52467;40.114;18.306;2023-04-12T00:13:29;28.45;;;15.27;;
42192;SDS011;52467;40.114;18.306;2023-04-12T00:15:56;26.95;;;14.20;;
42192;SDS011;52467;40.114;18.306;2023-04-12T00:18:23;26.23;;;13.48;;
42192;SDS011;52467;40.114;18.306;2023-04-12T00:20:51;29.55;;;14.40;;
42192;SDS011;52467;40.114;18.306;2023-04-12T00:23:19;23.73;;;12.82;;
42192;SDS011;52467;40.114;18.306;2023-04-12T00:25:46;24.45;;;12.65;;
42192;SDS011;52467;40.114;18.306;2023-04-12T00:28:14;27.73;;;13.83;;
42192;SDS011;52467;40.114;18.306;2023-04-12T00:30:42;26.40;;;13.53;;
42192;SDS011;52467;40.114;18.306;2023-04-12T00:33:10;26.88;;;13.35;;
42192;SDS011;52467;40.114;18.306;2023-04-12T00:35:38;23.70;;;12.55;;
42192;SDS011;52467;40.114;18.306;2023-04-12T00:38:05;22.98;;;12.55;;
42192;SDS011;52467;40.114;18.306;2023-04-12T00:40:42;26.05;;;12.32;;
42192;SDS011;52467;40.114;18.306;2023-04-12T00:43:10;23.30;;;11.90;;
42192;SDS011;52467;40.114;18.306;2023-04-12T00:45:45;20.55;;;10.40;;
42192;SDS011;52467;40.114;18.306;2023-04-12T00:48:13;21.77;;;11.32;;
42192;SDS011;52467;40.114;18.306;2023-04-12T00:50:44;21.73;;;10.15;;
42192;SDS011;52467;40.114;18.306;2023-04-12T00:53:13;19.55;;;10.18;;
42192;SDS011;52467;40.114;18.306;2023-04-12T00:55:41;19.17;;;10.00;;
42192;SDS011;52467;40.114;18.306;2023-04-12T00:58:10;20.80;;;10.10;;
42192;SDS011;52467;40.114;18.306;2023-04-12T01:00:39;21.17;;;10.23;;
42192;SDS011;52467;40.114;18.306;2023-04-12T01:03:07;19.63;;;9.77;;
42192;SDS011;52467;40.114;18.306;2023-04-12T01:05:39;23.33;;;10.40;;
42192;SDS011;52467;40.114;18.306;2023-04-12T01:08:18;18.52;;;9.88;;
42192;SDS011;52467;40.114;18.306;2023-04-12T01:14:06;19.33;;;10.23;;
42192;SDS011;52467;40.114;18.306;2023-04-12T01:19:32;20.85;;;10.70;;
42192;SDS011;52467;40.114;18.306;2023-04-12T01:22:12;17.25;;;10.25;;
42192;SDS011;52467;40.114;18.306;2023-04-12T01:25:09;21.88;;;10.27;;
42192;SDS011;52467;40.114;18.306;2023-04-12T01:27:52;18.38;;;10.00;;
42192;SDS011;52467;40.114;18.306;2023-04-12T01:30:22;17.75;;;9.43;;
42192;SDS011;52467;40.114;18.306;2023-04-12T01:32:53;23.67;;;9.90;;
42192;SDS011;52467;40.114;18.306;2023-04-12T01:35:24;20.70;;;8.95;;
42192;SDS011;52467;40.114;18.306;2023-04-12T01:37:55;18.20;;;9.70;;
42192;SDS011;52467;40.114;18.306;2023-04-12T01:40:27;21.83;;;9.75;;
42192;SDS011;52467;40.114;18.306;2023-04-12T01:45:37;19.42;;;10.02;;
42192;SDS011;52467;40.114;18.306;2023-04-12T01:48:08;19.58;;;9.43;;
42192;SDS011;52467;40.114;18.306;2023-04-12T01:50:41;18.75;;;9.48;;
42192;SDS011;52467;40.114;18.306;2023-04-12T01:53:22;18.45;;;9.90;;
42192;SDS011;52467;40.114;18.306;2023-04-12T01:56:08;19.83;;;10.05;;
42192;SDS011;52467;40.114;18.306;2023-04-12T01:58:38;18.35;;;10.23;;
42192;SDS011;52467;40.114;18.306;2023-04-12T02:01:06;19.55;;;9.60;;
42192;SDS011;52467;40.114;18.306;2023-04-12T02:03:38;21.58;;;9.85;;
42192;SDS011;52467;40.114;18.306;2023-04-12T02:06:08;21.65;;;10.85;;
42192;SDS011;52467;40.114;18.306;2023-04-12T02:08:35;19.80;;;10.18;;
42192;SDS011;52467;40.114;18.306;2023-04-12T02:11:07;25.27;;;11.53;;
42192;SDS011;52467;40.114;18.306;2023-04-12T02:13:35;15.85;;;9.65;;
42192;SDS011;52467;40.114;18.306;2023-04-12T02:16:03;20.20;;;10.38;;
42192;SDS011;52467;40.114;18.306;2023-04-12T02:18:33;21.33;;;10.73;;
42192;SDS011;52467;40.114;18.306;2023-04-12T02:21:04;21.08;;;10.98;;
42192;SDS011;52467;40.114;18.306;2023-04-12T02:23:33;19.60;;;10.40;;
42192;SDS011;52467;40.114;18.306;2023-04-12T02:26:00;21.15;;;11.00;;
42192;SDS011;52467;40.114;18.306;2023-04-12T02:28:31;17.60;;;9.80;;
42192;SDS011;52467;40.114;18.306;2023-04-12T02:31:00;21.35;;;10.85;;
42192;SDS011;52467;40.114;18.306;2023-04-12T02:33:30;18.90;;;10.85;;
42192;SDS011;52467;40.114;18.306;2023-04-12T02:36:00;20.30;;;11.25;;
42192;SDS011;52467;40.114;18.306;2023-04-12T02:38:30;18.20;;;10.88;;
42192;SDS011;52467;40.114;18.306;2023-04-12T02:41:00;21.45;;;10.63;;
42192;SDS011;52467;40.114;18.306;2023-04-12T02:43:31;18.85;;;11.07;;
42192;SDS011;52467;40.114;18.306;2023-04-12T02:46:02;21.70;;;11.73;;
42192;SDS011;52467;40.114;18.306;2023-04-12T02:48:38;19.60;;;11.07;;
42192;SDS011;52467;40.114;18.306;2023-04-12T02:51:05;21.58;;;10.65;;
42192;SDS011;52467;40.114;18.306;2023-04-12T02:53:34;19.17;;;10.60;;
42192;SDS011;52467;40.114;18.306;2023-04-12T02:56:11;18.58;;;10.68;;
42192;SDS011;52467;40.114;18.306;2023-04-12T02:58:39;18.47;;;10.67;;
42192;SDS011;52467;40.114;18.306;2023-04-12T03:01:09;18.90;;;10.55;;
42192;SDS011;52467;40.114;18.306;2023-04-12T03:03:56;19.25;;;10.98;;
42192;SDS011;52467;40.114;18.306;2023-04-12T03:06:37;18.53;;;10.60;;
42192;SDS011;52467;40.114;18.306;2023-04-12T03:09:24;19.88;;;10.70;;
42192;SDS011;52467;40.114;18.306;2023-04-12T03:11:53;22.70;;;10.57;;
42192;SDS011;52467;40.114;18.306;2023-04-12T03:14:21;19.17;;;10.45;;
42192;SDS011;52467;40.114;18.306;2023-04-12T03:16:50;16.67;;;9.68;;
42192;SDS011;52467;40.114;18.306;2023-04-12T03:19:19;18.88;;;10.55;;
42192;SDS011;52467;40.114;18.306;2023-04-12T03:21:53;20.35;;;11.02;;
42192;SDS011;52467;40.114;18.306;2023-04-12T03:24:21;22.52;;;11.15;;
42192;SDS011;52467;40.114;18.306;2023-04-12T03:26:50;17.90;;;10.40;;
42192;SDS011;52467;40.114;18.306;2023-04-12T03:29:22;21.80;;;11.57;;
42192;SDS011;52467;40.114;18.306;2023-04-12T03:31:52;21.80;;;10.97;;
42192;SDS011;52467;40.114;18.306;2023-04-12T03:34:19;19.40;;;10.57;;
42192;SDS011;52467;40.114;18.306;2023-04-12T03:36:51;21.08;;;10.77;;
42192;SDS011;52467;40.114;18.306;2023-04-12T03:39:29;21.13;;;10.50;;
42192;SDS011;52467;40.114;18.306;2023-04-12T03:41:58;21.00;;;10.60;;
42192;SDS011;52467;40.114;18.306;2023-04-12T03:44:27;17.58;;;9.90;;
42192;SDS011;52467;40.114;18.306;2023-04-12T03:46:57;16.70;;;10.13;;
42192;SDS011;52467;40.114;18.306;2023-04-12T03:49:30;18.25;;;10.25;;
42192;SDS011;52467;40.114;18.306;2023-04-12T03:51:59;19.48;;;10.88;;
42192;SDS011;52467;40.114;18.306;2023-04-12T03:54:27;17.83;;;9.82;;
42192;SDS011;52467;40.114;18.306;2023-04-12T03:56:57;20.03;;;10.03;;
42192;SDS011;52467;40.114;18.306;2023-04-12T03:59:35;19.67;;;10.40;;
42192;SDS011;52467;40.114;18.306;2023-04-12T04:02:03;19.67;;;10.18;;
42192;SDS011;52467;40.114;18.306;2023-04-12T04:04:33;19.77;;;10.30;;
42192;SDS011;52467;40.114;18.306;2023-04-12T04:07:06;22.70;;;10.38;;
42192;SDS011;52467;40.114;18.306;2023-04-12T04:09:42;19.17;;;10.10;;
42192;SDS011;52467;40.114;18.306;2023-04-12T04:12:10;16.58;;;9.60;;
42192;SDS011;52467;40.114;18.306;2023-04-12T04:14:43;18.75;;;9.57;;
42192;SDS011;52467;40.114;18.306;2023-04-12T04:17:17;21.33;;;10.70;;
42192;SDS011;52467;40.114;18.306;2023-04-12T04:19:45;17.23;;;9.77;;
42192;SDS011;52467;40.114;18.306;2023-04-12T04:22:13;16.08;;;9.35;;
42192;SDS011;52467;40.114;18.306;2023-04-12T04:24:44;25.73;;;10.40;;
42192;SDS011;52467;40.114;18.306;2023-04-12T04:27:11;18.57;;;9.90;;
42192;SDS011;52467;40.114;18.306;2023-04-12T04:29:41;20.27;;;10.77;;
42192;SDS011;52467;40.114;18.306;2023-04-12T04:32:13;18.35;;;10.30;;
42192;SDS011;52467;40.114;18.306;2023-04-12T04:34:43;20.20;;;11.50;;
42192;SDS011;52467;40.114;18.306;2023-04-12T04:37:14;16.42;;;10.45;;
42192;SDS011;52467;40.114;18.306;2023-04-12T04:39:44;18.75;;;10.65;;
42192;SDS011;52467;40.114;18.306;2023-04-12T04:42:13;19.90;;;11.07;;
42192;SDS011;52467;40.114;18.306;2023-04-12T04:45:09;17.57;;;10.27;;
42192;SDS011;52467;40.114;18.306;2023-04-12T04:47:43;18.98;;;10.48;;
42192;SDS011;52467;40.114;18.306;2023-04-12T04:50:10;19.27;;;10.95;;
42192;SDS011;52467;40.114;18.306;2023-04-12T04:52:38;20.15;;;11.07;;
42192;SDS011;52467;40.114;18.306;2023-04-12T04:55:10;20.63;;;11.02;;
42192;SDS011;52467;40.114;18.306;2023-04-12T04:57:43;19.85;;;10.77;;
42192;SDS011;52467;40.114;18.306;2023-04-12T05:00:11;19.80;;;10.18;;
42192;SDS011;52467;40.114;18.306;2023-04-12T05:02:42;17.92;;;11.15;;
42192;SDS011;52467;40.114;18.306;2023-04-12T05:05:15;20.42;;;10.13;;
42192;SDS011;52467;40.114;18.306;2023-04-12T05:07:44;17.48;;;10.20;;
42192;SDS011;52467;40.114;18.306;2023-04-12T05:10:13;18.15;;;10.02;;
42192;SDS011;52467;40.114;18.306;2023-04-12T05:12:42;17.30;;;10.07;;
42192;SDS011;52467;40.114;18.306;2023-04-12T05:15:11;14.97;;;9.73;;
42192;SDS011;52467;40.114;18.306;2023-04-12T05:17:39;17.93;;;10.17;;
42192;SDS011;52467;40.114;18.306;2023-04-12T05:20:07;17.33;;;9.77;;
42192;SDS011;52467;40.114;18.306;2023-04-12T05:22:37;17.95;;;9.57;;
42192;SDS011;52467;40.114;18.306;2023-04-12T05:25:05;18.00;;;9.73;;
42192;SDS011;52467;40.114;18.306;2023-04-12T05:27:38;15.88;;;9.15;;
42192;SDS011;52467;40.114;18.306;2023-04-12T05:30:07;14.30;;;8.85;;
42192;SDS011;52467;40.114;18.306;2023-04-12T05:32:35;14.55;;;8.75;;
42192;SDS011;52467;40.114;18.306;2023-04-12T05:35:02;13.90;;;8.48;;
42192;SDS011;52467;40.114;18.306;2023-04-12T05:37:31;14.93;;;7.80;;
42192;SDS011;52467;40.114;18.306;2023-04-12T05:39:59;15.33;;;8.23;;
42192;SDS011;52467;40.114;18.306;2023-04-12T05:42:27;17.90;;;8.82;;
42192;SDS011;52467;40.114;18.306;2023-04-12T05:44:56;14.80;;;7.80;;
42192;SDS011;52467;40.114;18.306;2023-04-12T05:47:24;14.30;;;8.17;;
42192;SDS011;52467;40.114;18.306;2023-04-12T05:49:54;15.52;;;8.57;;
42192;SDS011;52467;40.114;18.306;2023-04-12T05:52:22;13.27;;;7.55;;
42192;SDS011;52467;40.114;18.306;2023-04-12T05:54:51;11.50;;;6.85;;
42192;SDS011;52467;40.114;18.306;2023-04-12T05:57:20;14.70;;;7.40;;
42192;SDS011;52467;40.114;18.306;2023-04-12T05:59:48;11.77;;;7.35;;
42192;SDS011;52467;40.114;18.306;2023-04-12T06:02:16;15.97;;;7.00;;
42192;SDS011;52467;40.114;18.306;2023-04-12T06:04:44;11.70;;;6.63;;
42192;SDS011;52467;40.114;18.306;2023-04-12T06:07:14;17.43;;;6.97;;
42192;SDS011;52467;40.114;18.306;2023-04-12T06:09:44;15.15;;;7.72;;
42192;SDS011;52467;40.114;18.306;2023-04-12T06:12:11;13.57;;;6.87;;
42192;SDS011;52467;40.114;18.306;2023-04-12T06:14:39;14.93;;;7.38;;
42192;SDS011;52467;40.114;18.306;2023-04-12T06:17:07;14.35;;;7.50;;
42192;SDS011;52467;40.114;18.306;2023-04-12T06:19:34;12.20;;;6.75;;
42192;SDS011;52467;40.114;18.306;2023-04-12T06:22:02;10.93;;;6.30;;
42192;SDS011;52467;40.114;18.306;2023-04-12T06:24:30;11.75;;;7.07;;
42192;SDS011;52467;40.114;18.306;2023-04-12T06:26:58;10.90;;;6.40;;
42192;SDS011;52467;40.114;18.306;2023-04-12T06:29:31;8.57;;;5.57;;
42192;SDS011;52467;40.114;18.306;2023-04-12T06:31:59;10.40;;;6.60;;
42192;SDS011;52467;40.114;18.306;2023-04-12T06:34:26;11.23;;;6.10;;
42192;SDS011;52467;40.114;18.306;2023-04-12T06:36:58;9.30;;;5.97;;
42192;SDS011;52467;40.114;18.306;2023-04-12T06:39:26;11.32;;;6.10;;
42192;SDS011;52467;40.114;18.306;2023-04-12T06:41:53;11.70;;;6.37;;
42192;SDS011;52467;40.114;18.306;2023-04-12T06:44:23;12.20;;;6.05;;
42192;SDS011;52467;40.114;18.306;2023-04-12T06:46:52;10.98;;;6.32;;
42192;SDS011;52467;40.114;18.306;2023-04-12T06:49:19;11.90;;;6.47;;
42192;SDS011;52467;40.114;18.306;2023-04-12T06:51:46;12.07;;;6.43;;
42192;SDS011;52467;40.114;18.306;2023-04-12T06:54:14;11.13;;;6.47;;
42192;SDS011;52467;40.114;18.306;2023-04-12T06:56:41;9.90;;;5.88;;
42192;SDS011;52467;40.114;18.306;2023-04-12T06:59:09;10.60;;;6.03;;
42192;SDS011;52467;40.114;18.306;2023-04-12T07:01:36;9.02;;;5.78;;
42192;SDS011;52467;40.114;18.306;2023-04-12T07:04:04;9.27;;;5.43;;
42192;SDS011;52467;40.114;18.306;2023-04-12T07:06:31;15.15;;;5.80;;
42192;SDS011;52467;40.114;18.306;2023-04-12T07:08:59;8.88;;;5.20;;
42192;SDS011;52467;40.114;18.306;2023-04-12T07:11:26;10.73;;;5.05;;
42192;SDS011;52467;40.114;18.306;2023-04-12T07:13:54;7.30;;;4.13;;
42192;SDS011;52467;40.114;18.306;2023-04-12T07:16:21;9.48;;;4.82;;
42192;SDS011;52467;40.114;18.306;2023-04-12T07:18:49;8.60;;;4.40;;
42192;SDS011;52467;40.114;18.306;2023-04-12T07:21:16;7.45;;;4.60;;
42192;SDS011;52467;40.114;18.306;2023-04-12T07:23:45;9.95;;;4.35;;
42192;SDS011;52467;40.114;18.306;2023-04-12T07:26:13;7.37;;;4.40;;
42192;SDS011;52467;40.114;18.306;2023-04-12T07:28:40;7.97;;;4.32;;
42192;SDS011;52467;40.114;18.306;2023-04-12T07:31:08;8.88;;;4.53;;
42192;SDS011;52467;40.114;18.306;2023-04-12T07:33:36;8.75;;;4.82;;
42192;SDS011;52467;40.114;18.306;2023-04-12T07:36:05;7.60;;;4.25;;
42192;SDS011;52467;40.114;18.306;2023-04-12T07:38:33;8.07;;;4.88;;
42192;SDS011;52467;40.114;18.306;2023-04-12T07:41:01;9.02;;;4.70;;
42192;SDS011;52467;40.114;18.306;2023-04-12T07:43:28;8.10;;;4.00;;
42192;SDS011;52467;40.114;18.306;2023-04-12T07:45:55;7.28;;;4.22;;
42192;SDS011;52467;40.114;18.306;2023-04-12T07:48:23;8.18;;;3.67;;
42192;SDS011;52467;40.114;18.306;2023-04-12T07:50:50;7.85;;;4.25;;
42192;SDS011;52467;40.114;18.306;2023-04-12T07:53:25;5.93;;;3.85;;
42192;SDS011;52467;40.114;18.306;2023-04-12T07:55:53;8.77;;;3.87;;
42192;SDS011;52467;40.114;18.306;2023-04-12T07:58:22;8.30;;;4.00;;
42192;SDS011;52467;40.114;18.306;2023-04-12T08:00:50;5.95;;;4.00;;
42192;SDS011;52467;40.114;18.306;2023-04-12T08:03:17;7.90;;;3.90;;
42192;SDS011;52467;40.114;18.306;2023-04-12T08:05:45;5.68;;;3.63;;
42192;SDS011;52467;40.114;18.306;2023-04-12T08:08:18;6.63;;;3.73;;
42192;SDS011;52467;40.114;18.306;2023-04-12T08:10:48;7.23;;;4.07;;
42192;SDS011;52467;40.114;18.306;2023-04-12T08:13:16;7.40;;;3.38;;
42192;SDS011;52467;40.114;18.306;2023-04-12T08:15:44;6.72;;;3.80;;
42192;SDS011;52467;40.114;18.306;2023-04-12T08:18:13;6.87;;;3.67;;
42192;SDS011;52467;40.114;18.306;2023-04-12T08:20:40;6.95;;;3.70;;
42192;SDS011;52467;40.114;18.306;2023-04-12T08:23:10;8.60;;;3.70;;
42192;SDS011;52467;40.114;18.306;2023-04-12T08:25:37;6.53;;;3.30;;
42192;SDS011;52467;40.114;18.306;2023-04-12T08:28:05;5.93;;;3.55;;
42192;SDS011;52467;40.114;18.306;2023-04-12T08:30:35;5.18;;;3.05;;
42192;SDS011;52467;40.114;18.306;2023-04-12T08:33:03;5.35;;;3.45;;
42192;SDS011;52467;40.114;18.306;2023-04-12T08:35:30;6.18;;;3.30;;
42192;SDS011;52467;40.114;18.306;2023-04-12T08:37:58;6.20;;;3.05;;
42192;SDS011;52467;40.114;18.306;2023-04-12T08:40:32;5.20;;;2.97;;
42192;SDS011;52467;40.114;18.306;2023-04-12T08:43:02;6.35;;;3.00;;
42192;SDS011;52467;40.114;18.306;2023-04-12T08:45:34;5.85;;;3.20;;
42192;SDS011;52467;40.114;18.306;2023-04-12T08:48:03;4.72;;;2.67;;
42192;SDS011;52467;40.114;18.306;2023-04-12T08:50:32;5.82;;;3.00;;
42192;SDS011;52467;40.114;18.306;2023-04-12T08:52:59;6.05;;;2.75;;
42192;SDS011;52467;40.114;18.306;2023-04-12T08:55:27;6.85;;;3.10;;
42192;SDS011;52467;40.114;18.306;2023-04-12T08:57:54;8.48;;;2.88;;
42192;SDS011;52467;40.114;18.306;2023-04-12T09:00:24;5.22;;;2.90;;
42192;SDS011;52467;40.114;18.306;2023-04-12T09:02:52;4.38;;;2.83;;
42192;SDS011;52467;40.114;18.306;2023-04-12T09:05:19;4.53;;;2.88;;
42192;SDS011;52467;40.114;18.306;2023-04-12T09:07:53;7.63;;;3.08;;
42192;SDS011;52467;40.114;18.306;2023-04-12T09:10:31;11.40;;;3.30;;
42192;SDS011;52467;40.114;18.306;2023-04-12T09:13:00;4.95;;;2.92;;
42192;SDS011;52467;40.114;18.306;2023-04-12T09:15:29;4.70;;;2.83;;
42192;SDS011;52467;40.114;18.306;2023-04-12T09:20:34;4.10;;;2.78;;
42192;SDS011;52467;40.114;18.306;2023-04-12T09:26:02;7.85;;;3.05;;
42192;SDS011;52467;40.114;18.306;2023-04-12T09:28:30;4.90;;;2.97;;
42192;SDS011;52467;40.114;18.306;2023-04-12T09:30:57;5.78;;;3.00;;
42192;SDS011;52467;40.114;18.306;2023-04-12T09:33:35;5.28;;;2.80;;
42192;SDS011;52467;40.114;18.306;2023-04-12T09:36:04;5.95;;;2.83;;
42192;SDS011;52467;40.114;18.306;2023-04-12T09:38:35;8.32;;;3.15;;
42192;SDS011;52467;40.114;18.306;2023-04-12T09:41:15;6.17;;;3.37;;
42192;SDS011;52467;40.114;18.306;2023-04-12T09:43:47;5.88;;;3.30;;
42192;SDS011;52467;40.114;18.306;2023-04-12T09:46:14;6.60;;;3.20;;
42192;SDS011;52467;40.114;18.306;2023-04-12T09:48:51;7.40;;;3.30;;
42192;SDS011;52467;40.114;18.306;2023-04-12T09:53:57;8.13;;;2.95;;
42192;SDS011;52467;40.114;18.306;2023-04-12T09:56:29;8.87;;;3.10;;
42192;SDS011;52467;40.114;18.306;2023-04-12T09:59:05;5.40;;;3.23;;
42192;SDS011;52467;40.114;18.306;2023-04-12T10:01:39;5.75;;;3.20;;
42192;SDS011;52467;40.114;18.306;2023-04-12T10:04:07;5.93;;;3.57;;
42192;SDS011;52467;40.114;18.306;2023-04-12T10:06:35;5.72;;;3.53;;
42192;SDS011;52467;40.114;18.306;2023-04-12T10:09:03;5.13;;;3.22;;
42192;SDS011;52467;40.114;18.306;2023-04-12T10:11:32;4.70;;;2.92;;
42192;SDS011;52467;40.114;18.306;2023-04-12T10:14:02;6.38;;;3.10;;
42192;SDS011;52467;40.114;18.306;2023-04-12T10:16:35;5.22;;;2.80;;
42192;SDS011;52467;40.114;18.306;2023-04-12T10:19:03;6.43;;;2.70;;
42192;SDS011;52467;40.114;18.306;2023-04-12T10:21:30;5.93;;;3.08;;
42192;SDS011;52467;40.114;18.306;2023-04-12T10:23:57;5.63;;;3.05;;
42192;SDS011;52467;40.114;18.306;2023-04-12T10:26:25;7.13;;;2.97;;
42192;SDS011;52467;40.114;18.306;2023-04-12T10:31:50;5.68;;;3.13;;
42192;SDS011;52467;40.114;18.306;2023-04-12T10:34:22;5.57;;;3.28;;
42192;SDS011;52467;40.114;18.306;2023-04-12T10:39:41;3.93;;;2.83;;
42192;SDS011;52467;40.114;18.306;2023-04-12T10:42:23;5.27;;;2.87;;
42192;SDS011;52467;40.114;18.306;2023-04-12T10:44:53;5.40;;;2.40;;
42192;SDS011;52467;40.114;18.306;2023-04-12T10:50:19;6.20;;;2.33;;
42192;SDS011;52467;40.114;18.306;2023-04-12T10:55:38;4.57;;;2.70;;
42192;SDS011;52467;40.114;18.306;2023-04-12T10:58:09;4.90;;;2.85;;
42192;SDS011;52467;40.114;18.306;2023-04-12T11:03:24;3.70;;;2.40;;
42192;SDS011;52467;40.114;18.306;2023-04-12T11:08:58;5.57;;;2.90;;
42192;SDS011;52467;40.114;18.306;2023-04-12T11:11:26;6.25;;;2.20;;
42192;SDS011;52467;40.114;18.306;2023-04-12T11:13:53;4.68;;;2.28;;
42192;SDS011;52467;40.114;18.306;2023-04-12T11:16:22;2.80;;;1.90;;
42192;SDS011;52467;40.114;18.306;2023-04-12T11:18:50;4.32;;;2.03;;
42192;SDS011;52467;40.114;18.306;2023-04-12T11:21:17;3.10;;;2.20;;
42192;SDS011;52467;40.114;18.306;2023-04-12T11:23:45;3.70;;;2.10;;
42192;SDS011;52467;40.114;18.306;2023-04-12T11:26:17;2.70;;;1.80;;
42192;SDS011;52467;40.114;18.306;2023-04-12T11:28:46;3.03;;;1.88;;
42192;SDS011;52467;40.114;18.306;2023-04-12T11:31:18;4.60;;;1.80;;
42192;SDS011;52467;40.114;18.306;2023-04-12T11:33:46;5.07;;;2.00;;
42192;SDS011;52467;40.114;18.306;2023-04-12T11:36:14;3.60;;;2.05;;
42192;SDS011;52467;40.114;18.306;2023-04-12T11:38:42;3.05;;;1.98;;
42192;SDS011;52467;40.114;18.306;2023-04-12T11:41:13;4.28;;;2.17;;
42192;SDS011;52467;40.114;18.306;2023-04-12T11:43:40;4.30;;;1.83;;
42192;SDS011;52467;40.114;18.306;2023-04-12T11:46:08;3.30;;;2.00;;
42192;SDS011;52467;40.114;18.306;2023-04-12T11:48:36;4.93;;;2.28;;
42192;SDS011;52467;40.114;18.306;2023-04-12T11:51:19;4.00;;;2.00;;
42192;SDS011;52467;40.114;18.306;2023-04-12T11:53:56;3.00;;;1.90;;
42192;SDS011;52467;40.114;18.306;2023-04-12T11:56:24;5.55;;;2.00;;
42192;SDS011;52467;40.114;18.306;2023-04-12T11:58:52;4.30;;;2.08;;
42192;SDS011;52467;40.114;18.306;2023-04-12T12:01:20;2.95;;;2.35;;
42192;SDS011;52467;40.114;18.306;2023-04-12T12:03:49;2.92;;;1.85;;
42192;SDS011;52467;40.114;18.306;2023-04-12T12:06:16;4.32;;;2.03;;
42192;SDS011;52467;40.114;18.306;2023-04-12T12:08:45;4.35;;;2.10;;
42192;SDS011;52467;40.114;18.306;2023-04-12T12:11:12;3.20;;;2.00;;
42192;SDS011;52467;40.114;18.306;2023-04-12T12:13:49;6.57;;;2.00;;
42192;SDS011;52467;40.114;18.306;2023-04-12T12:16:27;4.60;;;2.20;;
42192;SDS011;52467;40.114;18.306;2023-04-12T12:18:55;5.10;;;2.30;;
42192;SDS011;52467;40.114;18.306;2023-04-12T12:21:23;4.60;;;2.00;;
42192;SDS011;52467;40.114;18.306;2023-04-12T12:23:52;2.33;;;1.63;;
42192;SDS011;52467;40.114;18.306;2023-04-12T12:26:25;2.83;;;1.93;;
42192;SDS011;52467;40.114;18.306;2023-04-12T12:28:54;2.75;;;1.90;;
42192;SDS011;52467;40.114;18.306;2023-04-12T12:31:23;5.00;;;1.88;;
42192;SDS011;52467;40.114;18.306;2023-04-12T12:33:55;3.53;;;2.00;;
42192;SDS011;52467;40.114;18.306;2023-04-12T12:36:42;3.30;;;2.15;;
42192;SDS011;52467;40.114;18.306;2023-04-12T12:39:11;2.28;;;1.88;;
42192;SDS011;52467;40.114;18.306;2023-04-12T12:41:38;3.28;;;1.70;;
42192;SDS011;52467;40.114;18.306;2023-04-12T12:44:06;4.55;;;2.30;;
42192;SDS011;52467;40.114;18.306;2023-04-12T12:46:34;4.57;;;2.10;;
42192;SDS011;52467;40.114;18.306;2023-04-12T12:49:14;2.13;;;1.65;;
42192;SDS011;52467;40.114;18.306;2023-04-12T12:51:41;3.20;;;2.03;;
42192;SDS011;52467;40.114;18.306;2023-04-12T12:54:09;5.63;;;2.10;;
42192;SDS011;52467;40.114;18.306;2023-04-12T12:56:36;2.67;;;1.83;;
42192;SDS011;52467;40.114;18.306;2023-04-12T12:59:03;2.92;;;1.90;;
42192;SDS011;52467;40.114;18.306;2023-04-12T13:01:31;3.45;;;2.00;;
42192;SDS011;52467;40.114;18.306;2023-04-12T13:03:58;2.80;;;1.70;;
42192;SDS011;52467;40.114;18.306;2023-04-12T13:06:26;4.57;;;1.90;;
42192;SDS011;52467;40.114;18.306;2023-04-12T13:08:53;3.15;;;2.17;;
42192;SDS011;52467;40.114;18.306;2023-04-12T13:11:21;2.88;;;2.10;;
42192;SDS011;52467;40.114;18.306;2023-04-12T13:13:48;4.30;;;2.42;;
42192;SDS011;52467;40.114;18.306;2023-04-12T13:16:16;3.20;;;2.13;;
42192;SDS011;52467;40.114;18.306;2023-04-12T13:18:43;4.03;;;2.42;;
42192;SDS011;52467;40.114;18.306;2023-04-12T13:21:10;3.25;;;2.20;;
42192;SDS011;52467;40.114;18.306;2023-04-12T13:23:38;6.05;;;2.65;;
42192;SDS011;52467;40.114;18.306;2023-04-12T13:26:05;10.25;;;2.70;;
42192;SDS011;52467;40.114;18.306;2023-04-12T13:28:33;9.85;;;2.70;;
42192;SDS011;52467;40.114;18.306;2023-04-12T13:31:00;3.83;;;2.55;;
42192;SDS011;52467;40.114;18.306;2023-04-12T13:33:27;3.43;;;2.37;;
42192;SDS011;52467;40.114;18.306;2023-04-12T13:35:55;4.65;;;2.13;;
42192;SDS011;52467;40.114;18.306;2023-04-12T13:38:22;6.53;;;2.28;;
42192;SDS011;52467;40.114;18.306;2023-04-12T13:40:49;5.32;;;2.33;;
42192;SDS011;52467;40.114;18.306;2023-04-12T13:43:17;4.88;;;2.03;;
42192;SDS011;52467;40.114;18.306;2023-04-12T13:45:44;5.72;;;2.20;;
42192;SDS011;52467;40.114;18.306;2023-04-12T13:48:12;4.20;;;2.20;;
42192;SDS011;52467;40.114;18.306;2023-04-12T13:50:39;4.70;;;2.20;;
42192;SDS011;52467;40.114;18.306;2023-04-12T13:53:06;3.95;;;1.90;;
42192;SDS011;52467;40.114;18.306;2023-04-12T13:55:34;4.63;;;2.40;;
42192;SDS011;52467;40.114;18.306;2023-04-12T13:58:01;4.70;;;2.10;;
42192;SDS011;52467;40.114;18.306;2023-04-12T14:00:28;4.00;;;1.77;;
42192;SDS011;52467;40.114;18.306;2023-04-12T14:02:56;3.97;;;1.90;;
42192;SDS011;52467;40.114;18.306;2023-04-12T14:05:23;4.78;;;1.90;;
42192;SDS011;52467;40.114;18.306;2023-04-12T14:07:50;3.30;;;1.60;;
42192;SDS011;52467;40.114;18.306;2023-04-12T14:10:18;4.63;;;2.05;;
42192;SDS011;52467;40.114;18.306;2023-04-12T14:12:45;4.80;;;2.13;;
42192;SDS011;52467;40.114;18.306;2023-04-12T14:15:12;5.40;;;1.98;;
42192;SDS011;52467;40.114;18.306;2023-04-12T14:17:40;5.00;;;2.03;;
42192;SDS011;52467;40.114;18.306;2023-04-12T14:20:07;4.55;;;1.70;;
42192;SDS011;52467;40.114;18.306;2023-04-12T14:22:38;4.75;;;1.90;;
42192;SDS011;52467;40.114;18.306;2023-04-12T14:25:05;5.38;;;2.03;;
42192;SDS011;52467;40.114;18.306;2023-04-12T14:27:33;5.57;;;2.20;;
42192;SDS011;52467;40.114;18.306;2023-04-12T14:30:01;7.50;;;2.37;;
42192;SDS011;52467;40.114;18.306;2023-04-12T14:32:32;4.20;;;2.27;;
42192;SDS011;52467;40.114;18.306;2023-04-12T14:34:59;4.55;;;2.35;;
42192;SDS011;52467;40.114;18.306;2023-04-12T14:37:26;6.28;;;2.95;;
42192;SDS011;52467;40.114;18.306;2023-04-12T14:39:54;7.25;;;2.60;;
42192;SDS011;52467;40.114;18.306;2023-04-12T14:42:22;5.40;;;2.65;;
42192;SDS011;52467;40.114;18.306;2023-04-12T14:44:49;6.90;;;3.20;;
42192;SDS011;52467;40.114;18.306;2023-04-12T14:47:16;6.25;;;2.90;;
42192;SDS011;52467;40.114;18.306;2023-04-12T14:49:44;5.25;;;2.85;;
42192;SDS011;52467;40.114;18.306;2023-04-12T14:52:12;7.00;;;3.10;;
42192;SDS011;52467;40.114;18.306;2023-04-12T14:54:39;5.60;;;2.90;;
42192;SDS011;52467;40.114;18.306;2023-04-12T14:57:07;6.90;;;3.08;;
42192;SDS011;52467;40.114;18.306;2023-04-12T14:59:34;6.88;;;2.83;;
42192;SDS011;52467;40.114;18.306;2023-04-12T15:02:02;5.53;;;3.22;;
42192;SDS011;52467;40.114;18.306;2023-04-12T15:04:29;7.68;;;3.08;;
42192;SDS011;52467;40.114;18.306;2023-04-12T15:06:56;6.55;;;2.90;;
42192;SDS011;52467;40.114;18.306;2023-04-12T15:09:24;4.45;;;2.22;;
42192;SDS011;52467;40.114;18.306;2023-04-12T15:11:51;7.30;;;2.95;;
42192;SDS011;52467;40.114;18.306;2023-04-12T15:14:26;7.25;;;3.20;;